createdAt,value
2017-02-13T00:00:36.003Z,65.24
2017-02-13T00:01:46.291Z,65.15
2017-02-13T00:02:55.741Z,65.24
2017-02-13T00:04:05.602Z,65.24
2017-02-13T00:05:15.871Z,65.24
2017-02-13T00:06:25.975Z,65.34
2017-02-13T00:07:36.287Z,65.34
2017-02-13T00:08:46.808Z,65.43
2017-02-13T00:09:57.070Z,65.62
2017-02-13T00:11:07.371Z,65.53
2017-02-13T00:12:17.987Z,65.24
2017-02-13T00:13:28.392Z,65.05
2017-02-13T00:14:37.968Z,65.05
2017-02-13T00:15:48.246Z,65.24
2017-02-13T00:16:58.707Z,65.24
2017-02-13T00:18:08.857Z,65.62
2017-02-13T00:19:18.746Z,65.05
2017-02-13T00:20:28.611Z,65.72
2017-02-13T00:21:38.599Z,65.15
2017-02-13T00:22:48.061Z,65.62
2017-02-13T00:23:58.251Z,65.34
2017-02-13T00:25:08.099Z,65.05
2017-02-13T00:26:17.996Z,65.15
2017-02-13T00:27:27.881Z,65.43
2017-02-13T00:28:38.217Z,65.24
2017-02-13T00:29:48.727Z,65.34
2017-02-13T00:30:59.060Z,65.62
2017-02-13T00:32:09.039Z,65.62
2017-02-13T00:33:18.938Z,65.34
2017-02-13T00:34:29.251Z,65.24
2017-02-13T00:35:39.364Z,65.62
2017-02-13T00:36:48.911Z,65.72
2017-02-13T00:37:58.759Z,66.28
2017-02-13T00:39:08.718Z,66.06
2017-02-13T00:40:18.604Z,66.28
2017-02-13T00:41:29.256Z,66.28
2017-02-13T00:42:39.208Z,65.72
2017-02-13T00:43:49.086Z,66
2017-02-13T00:44:58.526Z,65.62
2017-02-13T00:46:08.408Z,66.19
2017-02-13T00:47:18.528Z,65.97
2017-02-13T00:48:28.865Z,66.16
2017-02-13T00:49:38.333Z,66.19
2017-02-13T00:50:48.611Z,66
2017-02-13T00:51:58.646Z,65.91
2017-02-13T00:53:09.267Z,66
2017-02-13T00:54:19.193Z,65.62
2017-02-13T00:55:29.093Z,65.72
2017-02-13T00:56:38.673Z,65.72
2017-02-13T00:57:48.562Z,65.53
2017-02-13T00:58:58.697Z,65.53
2017-02-13T01:00:08.973Z,65.62
2017-02-13T01:01:18.836Z,65.24
2017-02-13T01:02:28.772Z,65.15
2017-02-13T01:03:39.122Z,65.24
2017-02-13T01:04:49.634Z,65.62
2017-02-13T01:05:59.903Z,65.24
2017-02-13T01:07:09.444Z,65.72
2017-02-13T01:08:19.318Z,65.62
2017-02-13T01:09:28.859Z,65.62
2017-02-13T01:10:39.004Z,65.72
2017-02-13T01:11:48.621Z,65.62
2017-02-13T01:12:58.082Z,65.34
2017-02-13T01:14:07.526Z,65.15
2017-02-13T01:15:17.792Z,65.05
2017-02-13T01:16:27.907Z,65.72
2017-02-13T01:17:37.874Z,65.05
2017-02-13T01:18:48.136Z,65.34
2017-02-13T01:19:57.985Z,65.43
2017-02-13T01:21:07.839Z,65.15
2017-02-13T01:22:18.106Z,65.15
2017-02-13T01:23:27.627Z,65.15
2017-02-13T01:24:37.939Z,65.91
2017-02-13T01:25:47.794Z,65.72
2017-02-13T01:26:57.636Z,65.62
2017-02-13T01:28:07.726Z,65.62
2017-02-13T01:29:17.559Z,65.72
2017-02-13T01:30:27.812Z,65.53
2017-02-13T01:31:38.110Z,66
2017-02-13T01:32:48.401Z,66.16
2017-02-13T01:33:58.892Z,66.16
2017-02-13T01:35:08.371Z,65.97
2017-02-13T01:36:18.228Z,66.16
2017-02-13T01:37:28.078Z,66.09
2017-02-13T01:38:37.914Z,66.06
2017-02-13T01:39:48.039Z,65.78
2017-02-13T01:40:58.338Z,66.16
2017-02-13T01:42:08.664Z,66
2017-02-13T01:43:18.569Z,66.06
2017-02-13T01:44:28.923Z,66.16
2017-02-13T01:45:39.044Z,66.19
2017-02-13T01:46:49.378Z,66.06
2017-02-13T01:47:59.283Z,66.09
2017-02-13T01:49:09.557Z,66.06
2017-02-13T01:50:19.425Z,65.97
2017-02-13T01:51:29.932Z,66.53
2017-02-13T01:52:39.803Z,66.35
2017-02-13T01:53:50.109Z,66.35
2017-02-13T01:54:59.710Z,66.53
2017-02-13T01:56:10.053Z,66.44
2017-02-13T01:57:20.232Z,66.53
2017-02-13T01:58:30.576Z,66.35
2017-02-13T01:59:40.852Z,66.63
2017-02-13T02:00:51.120Z,66.44
2017-02-13T02:02:01.440Z,66.53
2017-02-13T02:03:11.982Z,66.63
2017-02-13T02:04:22.261Z,66.72
2017-02-13T02:05:32.549Z,66.16
2017-02-13T02:06:42.422Z,66.35
2017-02-13T02:07:52.693Z,66.25
2017-02-13T02:09:02.408Z,66.72
2017-02-13T02:10:12.255Z,66.53
2017-02-13T02:11:22.563Z,66.82
2017-02-13T02:12:32.821Z,66.53
2017-02-13T02:13:42.708Z,66.72
2017-02-13T02:14:53.238Z,66.44
2017-02-13T02:16:03.100Z,65.97
2017-02-13T02:17:13.474Z,66.44
2017-02-13T02:18:22.928Z,66.06
2017-02-13T02:19:33.226Z,65.87
2017-02-13T02:20:43.381Z,66.63
2017-02-13T02:21:53.234Z,66.63
2017-02-13T02:23:03.486Z,66.35
2017-02-13T02:24:13.494Z,66.72
2017-02-13T02:25:23.769Z,66.63
2017-02-13T02:26:33.872Z,66.72
2017-02-13T02:27:44.145Z,66.72
2017-02-13T02:28:54.218Z,66.72
2017-02-13T02:30:04.608Z,66.82
2017-02-13T02:31:14.852Z,66.44
2017-02-13T02:32:25.344Z,66.35
2017-02-13T02:33:35.600Z,66.25
2017-02-13T02:34:45.852Z,66.44
2017-02-13T02:35:56.167Z,66.35
2017-02-13T02:37:06.001Z,66.16
2017-02-13T02:38:16.504Z,66.25
2017-02-13T02:39:26.421Z,65.97
2017-02-13T02:40:36.855Z,65.97
2017-02-13T02:41:46.319Z,66.16
2017-02-13T02:42:56.186Z,65.78
2017-02-13T02:44:06.798Z,65.59
2017-02-13T02:45:17.058Z,65.97
2017-02-13T02:46:26.980Z,65.97
2017-02-13T02:47:36.898Z,65.97
2017-02-13T02:48:46.391Z,66.06
2017-02-13T02:49:56.506Z,65.97
2017-02-13T02:51:06.402Z,65.49
2017-02-13T02:52:16.664Z,65.68
2017-02-13T02:53:26.593Z,65.59
2017-02-13T02:54:36.660Z,65.49
2017-02-13T02:55:46.755Z,65.68
2017-02-13T02:56:57.016Z,65.68
2017-02-13T02:58:06.982Z,65.78
2017-02-13T02:59:16.845Z,65.97
2017-02-13T03:00:26.699Z,66.06
2017-02-13T03:01:36.802Z,65.97
2017-02-13T03:02:46.287Z,66.16
2017-02-13T03:03:55.357Z,66.82
2017-02-13T03:05:05.678Z,66.53
2017-02-13T03:06:15.525Z,66.91
2017-02-13T03:07:26.039Z,67.1
2017-02-13T03:08:35.872Z,67.19
2017-02-13T03:09:45.721Z,67
2017-02-13T03:10:55.857Z,66.53
2017-02-13T03:12:06.116Z,66.63
2017-02-13T03:13:15.828Z,66.35
2017-02-13T03:14:25.319Z,67.1
2017-02-13T03:15:35.264Z,66.72
2017-02-13T03:16:45.229Z,67
2017-02-13T03:17:55.118Z,67.1
2017-02-13T03:19:05.652Z,67
2017-02-13T03:20:15.538Z,66.63
2017-02-13T03:21:25.468Z,66.72
2017-02-13T03:22:35.343Z,66.72
2017-02-13T03:23:44.815Z,66.72
2017-02-13T03:24:55.313Z,66.53
2017-02-13T03:26:04.769Z,66.72
2017-02-13T03:27:15.052Z,66.44
2017-02-13T03:28:25.310Z,66.25
2017-02-13T03:29:35.179Z,65.87
2017-02-13T03:30:45.731Z,66.06
2017-02-13T03:31:55.594Z,66.16
2017-02-13T03:33:05.869Z,65.97
2017-02-13T03:34:16.112Z,65.97
2017-02-13T03:35:25.582Z,66.16
2017-02-13T03:36:36.090Z,66.16
2017-02-13T03:37:46.441Z,65.97
2017-02-13T03:38:56.293Z,66.06
2017-02-13T03:40:06.567Z,66.63
2017-02-13T03:41:16.877Z,66.72
2017-02-13T03:42:27.469Z,66.63
2017-02-13T03:43:37.338Z,66.35
2017-02-13T03:44:47.700Z,66.35
2017-02-13T03:45:57.957Z,66.72
2017-02-13T03:47:08.220Z,66.72
2017-02-13T03:48:18.740Z,66.53
2017-02-13T03:49:29.053Z,66.44
2017-02-13T03:50:38.647Z,66.82
2017-02-13T03:51:48.503Z,67.19
2017-02-13T03:52:58.366Z,67.38
2017-02-13T03:54:08.941Z,67.57
2017-02-13T03:55:18.818Z,67.47
2017-02-13T03:56:28.669Z,67.29
2017-02-13T03:57:39.021Z,67.1
2017-02-13T03:58:49.286Z,67.19
2017-02-13T03:59:59.024Z,66.82
2017-02-13T04:01:08.944Z,67.1
2017-02-13T04:02:19.205Z,67
2017-02-13T04:03:29.514Z,66.82
2017-02-13T04:04:39.829Z,66.82
2017-02-13T04:05:50.386Z,66.91
2017-02-13T04:07:00.693Z,67
2017-02-13T04:08:10.542Z,66.82
2017-02-13T04:09:20.931Z,66.53
2017-02-13T04:10:31.212Z,66.72
2017-02-13T04:11:41.700Z,66.63
2017-02-13T04:12:52.015Z,65.97
2017-02-13T04:14:02.299Z,66.16
2017-02-13T04:15:12.556Z,66.06
2017-02-13T04:16:22.499Z,66.44
2017-02-13T04:17:32.675Z,66.72
2017-02-13T04:18:42.560Z,66.63
2017-02-13T04:19:52.884Z,66.35
2017-02-13T04:21:03.137Z,66.63
2017-02-13T04:22:12.583Z,66.63
2017-02-13T04:23:23.098Z,66.53
2017-02-13T04:24:33.413Z,66.53
2017-02-13T04:25:43.394Z,67.1
2017-02-13T04:26:53.816Z,67.1
2017-02-13T04:28:03.261Z,67.29
2017-02-13T04:29:13.387Z,67.47
2017-02-13T04:30:23.663Z,67.29
2017-02-13T04:31:33.561Z,67.66
2017-02-13T04:32:43.516Z,67.47
2017-02-13T04:33:53.405Z,67.29
2017-02-13T04:35:03.910Z,67.76
2017-02-13T04:36:14.168Z,67.47
2017-02-13T04:37:24.453Z,67.38
2017-02-13T04:38:34.743Z,67.19
2017-02-13T04:39:44.200Z,67.1
2017-02-13T04:40:54.357Z,67
2017-02-13T04:42:04.681Z,67.19
2017-02-13T04:43:14.538Z,67.29
2017-02-13T04:44:24.807Z,66.82
2017-02-13T04:45:34.685Z,67.19
2017-02-13T04:46:44.791Z,67.29
2017-02-13T04:47:55.088Z,67.1
2017-02-13T04:49:05.117Z,67
2017-02-13T04:50:15.378Z,66.91
2017-02-13T04:51:25.660Z,66.82
2017-02-13T04:52:35.791Z,66.72
2017-02-13T04:53:46.105Z,66.63
2017-02-13T04:54:55.587Z,66.35
2017-02-13T04:56:05.439Z,66.53
2017-02-13T04:57:15.722Z,66.72
2017-02-13T04:58:25.434Z,66.53
2017-02-13T04:59:35.296Z,66.25
2017-02-13T05:00:45.153Z,66.53
2017-02-13T05:01:55.081Z,66.53
2017-02-13T05:03:05.343Z,66.53
2017-02-13T05:04:15.565Z,66.72
2017-02-13T05:05:25.887Z,66.72
2017-02-13T05:06:35.908Z,66.82
2017-02-13T05:07:46.294Z,66.44
2017-02-13T05:08:56.176Z,66.44
2017-02-13T05:10:06.318Z,66.72
2017-02-13T05:11:15.402Z,67.1
2017-02-13T05:12:25.660Z,67.19
2017-02-13T05:13:35.550Z,67.1
2017-02-13T05:14:45.403Z,66.63
2017-02-13T05:15:55.499Z,66.82
2017-02-13T05:17:05.390Z,66.72
2017-02-13T05:18:15.248Z,66.72
2017-02-13T05:19:25.482Z,67.1
2017-02-13T05:20:35.732Z,66.91
2017-02-13T05:21:46.264Z,66.82
2017-02-13T05:22:55.404Z,66.72
2017-02-13T05:24:05.697Z,67.19
2017-02-13T05:25:15.582Z,66.91
2017-02-13T05:26:25.836Z,67
2017-02-13T05:27:36.366Z,66.91
2017-02-13T05:28:46.234Z,66.63
2017-02-13T05:29:56.177Z,66.63
2017-02-13T05:31:06.077Z,66.82
2017-02-13T05:32:16.336Z,66.35
2017-02-13T05:33:26.069Z,66.35
2017-02-13T05:34:36.431Z,66.35
2017-02-13T05:35:46.717Z,66.91
2017-02-13T05:36:57.042Z,66.35
2017-02-13T05:38:07.301Z,66.16
2017-02-13T05:39:17.655Z,66.82
2017-02-13T05:40:27.972Z,66.82
2017-02-13T05:41:37.433Z,66.25
2017-02-13T05:42:47.687Z,66.63
2017-02-13T05:43:57.560Z,66.53
2017-02-13T05:45:08.239Z,66.63
2017-02-13T05:46:18.222Z,66.63
2017-02-13T05:47:28.483Z,66.53
2017-02-13T05:48:38.832Z,66.53
2017-02-13T05:49:48.717Z,66.53
2017-02-13T05:50:59.242Z,66.63
2017-02-13T05:52:09.500Z,66.63
2017-02-13T05:53:19.349Z,66.53
2017-02-13T05:54:29.679Z,66.53
2017-02-13T05:55:39.998Z,66.53
2017-02-13T05:56:50.515Z,66.72
2017-02-13T05:58:00.028Z,66.82
2017-02-13T05:59:10.300Z,67.19
2017-02-13T06:00:20.154Z,67.47
2017-02-13T06:01:30.029Z,67.57
2017-02-13T06:02:40.671Z,67.29
2017-02-13T06:03:50.964Z,67.1
2017-02-13T06:05:00.831Z,67.19
2017-02-13T06:06:11.074Z,67.47
2017-02-13T06:07:21.362Z,67.29
2017-02-13T06:08:31.500Z,67.38
2017-02-13T06:09:40.551Z,67.29
2017-02-13T06:10:50.456Z,67.1
2017-02-13T06:12:00.837Z,66.91
2017-02-13T06:13:10.794Z,67.29
2017-02-13T06:14:21.349Z,67.29
2017-02-13T06:15:31.621Z,67.29
2017-02-13T06:16:42.013Z,66.82
2017-02-13T06:17:51.483Z,67.29
2017-02-13T06:19:01.743Z,67.29
2017-02-13T06:20:11.835Z,67.47
2017-02-13T06:21:22.161Z,67.38
2017-02-13T06:22:32.060Z,67.66
2017-02-13T06:23:41.581Z,67.76
2017-02-13T06:24:51.848Z,67.76
2017-02-13T06:26:02.020Z,67.66
2017-02-13T06:27:11.854Z,68.14
2017-02-13T06:28:21.983Z,67.66
2017-02-13T06:29:32.257Z,67.66
2017-02-13T06:30:42.124Z,67.76
2017-02-13T06:31:52.699Z,67.95
2017-02-13T06:33:02.995Z,67.85
2017-02-13T06:34:13.302Z,67.57
2017-02-13T06:35:23.545Z,67.66
2017-02-13T06:36:33.439Z,67.76
2017-02-13T06:37:43.145Z,67.38
2017-02-13T06:38:53.431Z,67.66
2017-02-13T06:40:03.435Z,67.76
2017-02-13T06:41:13.314Z,67.95
2017-02-13T06:42:23.177Z,67.95
2017-02-13T06:43:33.319Z,67.95
2017-02-13T06:44:43.168Z,68.23
2017-02-13T06:45:53.028Z,68.14
2017-02-13T06:47:03.338Z,68.14
2017-02-13T06:48:12.825Z,67.95
2017-02-13T06:49:22.537Z,67.85
2017-02-13T06:50:31.600Z,67.95
2017-02-13T06:51:42.057Z,68.42
2017-02-13T06:52:52.314Z,68.42
2017-02-13T06:54:02.181Z,68.14
2017-02-13T06:55:12.307Z,68.42
2017-02-13T06:56:22.588Z,68.33
2017-02-13T06:57:32.473Z,68.42
2017-02-13T06:58:42.407Z,68.61
2017-02-13T06:59:52.416Z,68.52
2017-02-13T07:01:02.597Z,68.52
2017-02-13T07:02:12.847Z,68.99
2017-02-13T07:03:22.730Z,68.61
2017-02-13T07:04:33.098Z,68.71
2017-02-13T07:05:43.395Z,68.61
2017-02-13T07:06:53.516Z,68.52
2017-02-13T07:08:03.394Z,68.71
2017-02-13T07:09:13.721Z,68.61
2017-02-13T07:10:24.094Z,68.8
2017-02-13T07:11:33.986Z,68.52
2017-02-13T07:12:44.127Z,67.47
2017-02-13T07:13:54.605Z,67.29
2017-02-13T07:15:04.501Z,66.66
2017-02-13T07:16:14.824Z,66.19
2017-02-13T07:17:24.323Z,65.34
2017-02-13T07:18:34.420Z,63.92
2017-02-13T07:19:44.664Z,63.85
2017-02-13T07:20:54.921Z,63.48
2017-02-13T07:22:04.001Z,62.72
2017-02-13T07:23:13.855Z,62.72
2017-02-13T07:24:24.361Z,61.58
2017-02-13T07:25:34.325Z,61.43
2017-02-13T07:26:44.195Z,60
2017-02-13T07:27:54.521Z,59.81
2017-02-13T07:29:04.477Z,58.87
2017-02-13T07:30:14.629Z,58.3
2017-02-13T07:31:25.032Z,57.86
2017-02-13T07:32:34.531Z,57.29
2017-02-13T07:33:44.797Z,57.76
2017-02-13T07:34:54.307Z,57.39
2017-02-13T07:36:04.838Z,56.63
2017-02-13T07:37:14.277Z,56.56
2017-02-13T07:38:24.180Z,55.99
2017-02-13T07:39:34.553Z,55.43
2017-02-13T07:40:44.402Z,55.43
2017-02-13T07:41:54.894Z,54.88
2017-02-13T07:43:05.190Z,54.88
2017-02-13T07:44:15.039Z,54.79
2017-02-13T07:45:24.905Z,54.79
2017-02-13T07:46:35.172Z,54.88
2017-02-13T07:47:45.718Z,54.88
2017-02-13T07:48:55.234Z,53.46
2017-02-13T07:50:05.551Z,53.37
2017-02-13T07:51:15.468Z,53.94
2017-02-13T07:52:25.336Z,53.46
2017-02-13T07:53:35.439Z,53.27
2017-02-13T07:54:45.384Z,52.8
2017-02-13T07:55:55.706Z,52.8
2017-02-13T07:57:05.631Z,52.7
2017-02-13T07:58:15.540Z,52.45
2017-02-13T07:59:26.117Z,51.97
2017-02-13T08:00:36.368Z,52.16
2017-02-13T08:01:45.460Z,51.78
2017-02-13T08:02:55.739Z,50.93
2017-02-13T08:04:06.066Z,50.93
2017-02-13T08:05:17.275Z,50.95
2017-02-13T08:06:28.277Z,50.76
2017-02-13T08:07:39.072Z,50.1
2017-02-13T08:08:49.983Z,50.48
2017-02-13T08:10:00.514Z,49.91
2017-02-13T08:11:10.803Z,49.53
2017-02-13T08:12:21.769Z,49.72
2017-02-13T08:13:32.896Z,47.63
2017-02-13T08:14:43.855Z,47.85
2017-02-13T08:15:54.408Z,47.09
2017-02-13T08:17:05.117Z,47.37
2017-02-13T08:18:16.092Z,47.28
2017-02-13T08:19:27.184Z,46.16
2017-02-13T08:20:37.772Z,44.93
2017-02-13T08:21:48.730Z,43.79
2017-02-13T08:22:59.612Z,43.79
2017-02-13T08:24:10.592Z,42.57
2017-02-13T08:25:21.531Z,42.47
2017-02-13T08:26:32.122Z,42.29
2017-02-13T08:27:42.186Z,41.62
2017-02-13T08:28:53.970Z,40.41
2017-02-13T08:30:04.499Z,40.03
2017-02-13T08:31:15.439Z,40.03
2017-02-13T08:32:26.426Z,39.67
2017-02-13T08:33:37.341Z,38.81
2017-02-13T08:34:48.567Z,37.38
2017-02-13T08:35:58.767Z,37.86
2017-02-13T08:37:09.235Z,36.72
2017-02-13T08:38:19.354Z,36.07
2017-02-13T08:39:30.518Z,36.83
2017-02-13T08:40:41.776Z,36.26
2017-02-13T08:41:52.362Z,36.07
2017-02-13T08:43:03.292Z,35.89
2017-02-13T08:44:13.525Z,35.52
2017-02-13T08:45:24.245Z,34.58
2017-02-13T08:46:34.663Z,34.94
2017-02-13T08:47:45.612Z,33.06
2017-02-13T08:48:56.142Z,32.56
2017-02-13T08:50:06.719Z,33.06
2017-02-13T08:51:17.289Z,32.58
2017-02-13T08:53:00.284Z,32.96
2017-02-13T08:54:11.239Z,31.63
2017-02-13T08:55:21.380Z,32.96
2017-02-13T08:56:33.350Z,32.39
2017-02-13T08:57:44.301Z,32.79
2017-02-13T08:58:55.084Z,31.36
2017-02-13T09:00:06.061Z,33.07
2017-02-13T09:01:17.005Z,32.6
2017-02-13T09:02:27.962Z,31.55
2017-02-13T09:03:38.508Z,32.4
2017-02-13T09:04:50.719Z,32.4
2017-02-13T09:06:01.655Z,31.95
2017-02-13T09:07:12.232Z,31.95
2017-02-13T09:08:22.822Z,32.52
2017-02-13T09:09:33.797Z,32.52
2017-02-13T09:10:45.032Z,31.95
2017-02-13T09:11:55.976Z,32.23
2017-02-13T09:13:06.981Z,31.47
2017-02-13T09:14:17.554Z,32.04
2017-02-13T09:15:27.724Z,31.28
2017-02-13T09:16:38.913Z,31.66
2017-02-13T09:17:49.492Z,31.28
2017-02-13T09:18:59.722Z,30.23
2017-02-13T09:20:10.642Z,29.77
2017-02-13T09:21:21.578Z,29.86
2017-02-13T09:22:32.407Z,30.05
2017-02-13T09:23:43.058Z,30.24
2017-02-13T09:24:54.059Z,30.63
2017-02-13T09:26:04.146Z,30.82
2017-02-13T09:27:15.781Z,30.61
2017-02-13T09:28:26.281Z,30.15
2017-02-13T09:29:36.818Z,30.15
2017-02-13T09:30:47.801Z,29.67
2017-02-13T09:31:58.807Z,30.05
2017-02-13T09:33:09.449Z,29.48
2017-02-13T09:34:20.699Z,28.91
2017-02-13T09:35:30.823Z,29.58
2017-02-13T09:36:41.796Z,29.78
2017-02-13T09:37:53.312Z,29.59
2017-02-13T09:39:03.857Z,29.77
2017-02-13T09:40:14.738Z,29.77
2017-02-13T09:41:25.712Z,29.96
2017-02-13T09:42:36.263Z,29.38
2017-02-13T09:43:46.431Z,29.75
2017-02-13T09:44:57.155Z,29.94
2017-02-13T09:46:07.895Z,28.99
2017-02-13T09:47:18.442Z,30.13
2017-02-13T09:48:28.508Z,29.85
2017-02-13T09:49:39.603Z,29.08
2017-02-13T09:50:50.176Z,28.89
2017-02-13T09:52:00.234Z,28.7
2017-02-13T09:53:10.712Z,27.76
2017-02-13T09:54:22.689Z,27.86
2017-02-13T09:55:33.304Z,27.87
2017-02-13T09:56:43.849Z,28.16
2017-02-13T09:57:54.251Z,28.16
2017-02-13T09:59:06.159Z,27.57
2017-02-13T10:00:17.111Z,28.62
2017-02-13T10:01:27.767Z,28.62
2017-02-13T10:02:38.556Z,29.1
2017-02-13T10:03:48.707Z,29.19
2017-02-13T10:04:59.771Z,29.47
2017-02-13T10:06:10.724Z,29.85
2017-02-13T10:07:21.742Z,30.23
2017-02-13T10:08:32.825Z,29.85
2017-02-13T10:09:43.294Z,29.56
2017-02-13T10:10:53.228Z,29.83
2017-02-13T10:12:03.168Z,30.12
2017-02-13T10:13:13.059Z,29.66
2017-02-13T10:14:23.351Z,30.13
2017-02-13T10:15:33.897Z,30.13
2017-02-13T10:16:43.850Z,29.86
2017-02-13T10:17:53.749Z,29.75
2017-02-13T10:19:03.681Z,30.32
2017-02-13T10:20:13.192Z,30.79
2017-02-13T10:21:22.965Z,30.98
2017-02-13T10:22:33.287Z,30.96
2017-02-13T10:23:43.662Z,31.34
2017-02-13T10:24:54.096Z,30.96
2017-02-13T10:26:04.015Z,30.96
2017-02-13T10:27:14.311Z,30.77
2017-02-13T10:28:24.701Z,30.21
2017-02-13T10:29:35.050Z,30.23
2017-02-13T10:30:45.389Z,30.13
2017-02-13T10:31:55.689Z,29.08
2017-02-13T10:33:06.219Z,28.24
2017-02-13T10:34:16.583Z,28.81
2017-02-13T10:35:26.877Z,28.72
2017-02-13T10:36:37.156Z,28.8
2017-02-13T10:37:47.087Z,28.24
2017-02-13T10:38:57.617Z,27.95
2017-02-13T10:40:07.586Z,27.67
2017-02-13T10:41:17.062Z,28.14
2017-02-13T10:42:27.606Z,28.14
2017-02-13T10:43:38.066Z,28.73
2017-02-13T10:44:48.689Z,28.06
2017-02-13T10:45:59.014Z,27.2
2017-02-13T10:47:09.304Z,26.73
2017-02-13T10:48:19.174Z,26.34
2017-02-13T10:49:28.675Z,27.3
2017-02-13T10:50:38.893Z,27.39
2017-02-13T10:51:49.247Z,27.2
2017-02-13T10:52:59.238Z,26.35
2017-02-13T10:54:09.111Z,26.44
2017-02-13T10:55:18.591Z,26.34
2017-02-13T10:56:28.322Z,26.54
2017-02-13T10:57:38.654Z,27.11
2017-02-13T10:58:48.636Z,26.63
2017-02-13T10:59:58.507Z,26.45
2017-02-13T11:01:08.871Z,26.55
2017-02-13T11:02:19.085Z,26.64
2017-02-13T11:03:29.369Z,25.79
2017-02-13T11:04:39.691Z,25.51
2017-02-13T11:05:50.047Z,25.8
2017-02-13T11:06:59.617Z,25.8
2017-02-13T11:08:09.084Z,25.51
2017-02-13T11:09:19.014Z,25.8
2017-02-13T11:10:29.316Z,25.8
2017-02-13T11:11:39.627Z,26.66
2017-02-13T11:12:49.612Z,26.84
2017-02-13T11:13:59.724Z,26.93
2017-02-13T11:15:10.052Z,27.22
2017-02-13T11:16:20.126Z,26.17
2017-02-13T11:17:30.405Z,25.98
2017-02-13T11:18:40.684Z,25.88
2017-02-13T11:19:51.204Z,25.59
2017-02-13T11:21:01.499Z,25.51
2017-02-13T11:22:11.780Z,25.8
2017-02-13T11:23:22.069Z,25.32
2017-02-13T11:24:32.347Z,25.89
2017-02-13T11:25:42.916Z,26.26
2017-02-13T11:26:53.242Z,26.45
2017-02-13T11:28:03.162Z,26.55
2017-02-13T11:29:13.098Z,26.35
2017-02-13T11:30:23.407Z,26.64
2017-02-13T11:31:33.139Z,25.88
2017-02-13T11:32:43.033Z,25.88
2017-02-13T11:33:52.509Z,25.79
2017-02-13T11:35:02.366Z,26.25
2017-02-13T11:36:11.983Z,25.96
2017-02-13T11:37:22.529Z,26.63
2017-02-13T11:38:32.834Z,26.63
2017-02-13T11:39:43.349Z,26.15
2017-02-13T11:40:53.636Z,26.35
2017-02-13T11:42:03.532Z,26.17
2017-02-13T11:43:14.091Z,26.35
2017-02-13T11:44:23.577Z,26.26
2017-02-13T11:45:33.875Z,25.6
2017-02-13T11:46:44.191Z,25.59
2017-02-13T11:47:54.170Z,25.79
2017-02-13T11:49:04.335Z,25.59
2017-02-13T11:50:14.624Z,25.6
2017-02-13T11:51:24.535Z,24.55
2017-02-13T11:52:34.855Z,25.23
2017-02-13T11:53:44.819Z,25.32
2017-02-13T11:54:55.430Z,25.31
2017-02-13T11:56:05.764Z,25.59
2017-02-13T11:57:15.674Z,25.31
2017-02-13T11:58:26.015Z,25.21
2017-02-13T11:59:36.291Z,25.12
2017-02-13T12:00:46.026Z,25.59
2017-02-13T12:01:56.345Z,25.4
2017-02-13T12:03:06.772Z,25.23
2017-02-13T12:04:17.197Z,24.93
2017-02-13T12:05:27.143Z,25.12
2017-02-13T12:06:37.759Z,25.12
2017-02-13T12:07:47.684Z,25.02
2017-02-13T12:08:57.584Z,24.64
2017-02-13T12:10:07.282Z,25.12
2017-02-13T12:11:17.222Z,25.31
2017-02-13T12:12:27.373Z,25.4
2017-02-13T12:13:37.794Z,24.83
2017-02-13T12:14:48.119Z,25.32
2017-02-13T12:15:57.577Z,24.84
2017-02-13T12:17:07.086Z,24.74
2017-02-13T12:18:17.406Z,25.13
2017-02-13T12:19:27.695Z,24.65
2017-02-13T12:20:37.991Z,25.03
2017-02-13T12:21:47.875Z,24.94
2017-02-13T12:22:57.744Z,24.46
2017-02-13T12:24:07.910Z,24.57
2017-02-13T12:25:17.832Z,24.84
2017-02-13T12:26:28.107Z,24.85
2017-02-13T12:27:38.478Z,24.48
2017-02-13T12:28:48.421Z,24.48
2017-02-13T12:29:58.962Z,24.57
2017-02-13T12:31:09.244Z,24.66
2017-02-13T12:32:19.119Z,23.9
2017-02-13T12:33:29.439Z,24.48
2017-02-13T12:34:39.320Z,24.19
2017-02-13T12:35:49.852Z,24.38
2017-02-13T12:37:00.221Z,24.28
2017-02-13T12:38:10.581Z,24.09
2017-02-13T12:39:20.983Z,24.19
2017-02-13T12:40:30.465Z,24.09
2017-02-13T12:41:40.286Z,24.09
2017-02-13T12:42:50.256Z,24.28
2017-02-13T12:44:00.571Z,24.38
2017-02-13T19:57:54.272Z,56.91
2017-02-13T19:59:04.232Z,57.01
2017-02-13T20:00:14.543Z,57.01
2017-02-13T20:01:24.874Z,57.29
2017-02-13T20:02:34.896Z,57.01
2017-02-13T20:03:45.458Z,57.29
2017-02-13T20:04:55.770Z,57.1
2017-02-13T20:06:05.275Z,57.1
2017-02-13T20:07:15.158Z,57.01
2017-02-13T20:08:25.416Z,57.39
2017-02-13T20:09:35.582Z,57.01
2017-02-13T20:10:45.839Z,57.01
2017-02-13T20:11:56.125Z,57.48
2017-02-13T20:13:06.042Z,57.48
2017-02-13T20:14:29.083Z,57.48
2017-02-13T20:15:39.701Z,57.67
2017-02-13T20:16:49.623Z,57.1
2017-02-13T20:17:59.907Z,57.48
2017-02-13T20:19:10.269Z,57.2
2017-02-13T20:20:19.977Z,57.48
2017-02-13T20:21:29.543Z,57.39
2017-02-13T20:22:39.874Z,57.29
2017-02-13T20:23:50.152Z,57.48
2017-02-13T20:25:00.077Z,57.2
2017-02-13T20:26:10.450Z,57.39
2017-02-13T20:27:20.820Z,57.1
2017-02-13T20:28:30.724Z,57.01
2017-02-13T20:29:40.629Z,57.48
2017-02-13T20:30:51.056Z,57.2
2017-02-13T20:32:01.728Z,57.2
2017-02-13T20:33:11.814Z,57.2
2017-02-13T20:34:22.199Z,57.29
2017-02-13T20:35:31.686Z,57.29
2017-02-13T20:36:41.227Z,57.67
2017-02-13T20:37:51.416Z,57.73
2017-02-13T20:39:01.729Z,57.95
2017-02-13T20:40:12.155Z,58.14
2017-02-13T20:41:22.558Z,57.86
2017-02-13T20:42:32.860Z,57.76
2017-02-13T20:43:43.073Z,57.86
2017-02-13T20:44:53.430Z,57.83
2017-02-13T20:46:03.850Z,57.76
2017-02-13T20:47:14.132Z,57.76
2017-02-13T20:48:24.489Z,57.76
2017-02-13T20:49:34.627Z,57.95
2017-02-13T20:50:44.919Z,57.76
2017-02-13T20:51:55.222Z,57.86
2017-02-13T20:53:05.139Z,57.57
2017-02-13T20:54:15.578Z,57.86
2017-02-13T20:55:25.778Z,57.76
2017-02-13T20:56:36.164Z,57.86
2017-02-13T20:57:46.450Z,57.86
2017-02-13T20:58:56.805Z,57.76
2017-02-13T21:00:06.832Z,57.86
2017-02-13T21:01:16.979Z,57.83
2017-02-13T21:02:26.866Z,58.05
2017-02-13T21:03:36.745Z,57.73
2017-02-13T21:04:46.652Z,57.83
2017-02-13T21:05:57.029Z,57.73
2017-02-13T21:07:07.566Z,58.11
2017-02-13T21:08:17.884Z,57.83
2017-02-13T21:09:28.190Z,57.92
2017-02-13T21:10:38.119Z,57.92
2017-02-13T21:11:47.651Z,58.21
2017-02-13T21:12:58.176Z,58.59
2017-02-13T21:14:08.487Z,58.49
2017-02-13T21:15:18.803Z,58.3
2017-02-13T21:16:28.275Z,58.68
2017-02-13T21:17:38.589Z,58.59
2017-02-13T21:18:49.184Z,58.59
2017-02-13T21:19:59.049Z,58.59
2017-02-13T21:21:08.671Z,58.68
2017-02-13T21:22:18.581Z,58.59
2017-02-13T21:23:29.000Z,58.87
2017-02-13T21:24:39.515Z,58.97
2017-02-13T21:25:49.810Z,58.59
2017-02-13T21:27:00.123Z,59.06
2017-02-13T21:28:10.008Z,59.44
2017-02-13T21:29:20.310Z,59.16
2017-02-13T21:30:30.500Z,59.53
2017-02-13T21:31:40.807Z,59.34
2017-02-13T21:32:51.108Z,59.53
2017-02-13T21:34:01.376Z,59.53
2017-02-13T21:35:11.291Z,59.44
2017-02-13T21:36:20.611Z,59.44
2017-02-13T21:37:30.903Z,59.44
2017-02-13T21:38:41.171Z,59.44
2017-02-13T21:39:51.053Z,59.81
2017-02-13T21:41:00.941Z,59.81
2017-02-13T21:42:11.098Z,59.53
2017-02-13T21:43:21.440Z,59.72
2017-02-13T21:44:30.931Z,59.91
2017-02-13T21:45:40.827Z,59.72
2017-02-13T21:46:51.127Z,59.63
2017-02-13T21:48:00.848Z,59.72
2017-02-13T21:49:11.219Z,59.72
2017-02-13T21:50:21.075Z,59.63
2017-02-13T21:51:30.554Z,59.91
2017-02-13T21:52:40.940Z,59.53
2017-02-13T21:53:51.070Z,59.63
2017-02-13T21:55:00.929Z,59.53
2017-02-13T21:56:11.187Z,59.81
2017-02-13T21:57:21.052Z,59.44
2017-02-13T21:58:30.903Z,59.72
2017-02-13T21:59:41.483Z,59.81
2017-02-13T22:00:51.831Z,59.91
2017-02-13T22:02:01.748Z,59.72
2017-02-13T22:03:12.111Z,59.91
2017-02-13T22:04:22.475Z,59.53
2017-02-13T22:05:32.631Z,59.72
2017-02-13T22:06:42.934Z,59.53
2017-02-13T22:07:52.808Z,59.44
2017-02-13T22:09:02.778Z,59.81
2017-02-13T22:10:13.094Z,59.53
2017-02-13T22:11:23.651Z,59.81
2017-02-13T22:12:33.943Z,59.72
2017-02-13T22:13:43.837Z,59.81
2017-02-13T22:14:54.162Z,59.81
2017-02-13T22:16:04.034Z,60.1
2017-02-13T22:17:14.628Z,60.29
2017-02-13T22:18:24.156Z,60.19
2017-02-13T22:19:34.479Z,60.1
2017-02-13T22:20:44.895Z,60.19